KGON/GON METAR and TAF weather

Enter ICAO airport designator
Station Type Date Time Source
KGON METAR 2021/05/14 11:56 UTC NOAA

KGON 141156Z 00000KT 10SM CLR 13/06 A3020 RMK AO2 SLP226 T01280061 10128 20044 51009


Station Type Date Time Source
KGON Decoded METAR 2021/05/14 11:56 UTC NOAA

GROTON/NEW LONDON AIRPORT , CT, United States (KGON) 41-20N 72-03W 3M
May 14, 2021 - 07:56 AM EDT / 2021.05.14 1156 UTC
Wind: Calm:0
Visibility: 10 mile(s):0
Sky conditions: clear
Temperature: 55.0 F (12.8 C)
Dew Point: 43.0 F (6.1 C)
Relative Humidity: 63%
Pressure (altimeter): 30.2 in. Hg (1022 hPa)
Pressure tendency: 0.03 inches (0.9 hPa) higher than three hours ago
ob: KGON 141156Z 00000KT 10SM CLR 13/06 A3020 RMK AO2 SLP226 T01280061 10128 20044 51009
cycle: 12

Station Type Date Time Source
KGON TAF 2021/05/14 12:28 UTC NOAA

TAF KGON 141126Z 1412/1512 VRB04KT P6SM SKC
FM141500 21007KT P6SM SCT250
FM141700 24010KT P6SM SCT080 SCT250
FM142300 VRB05KT P6SM FEW250

Example: see airport list